sensor_id;sensor_type;location;lat;lon;timestamp;temperature;humidity
3648;DHT22;1840;48.892;15.312;2023-06-14T00:00:01;12.40;91.10
3648;DHT22;1840;48.892;15.312;2023-06-14T00:02:31;12.40;91.10
3648;DHT22;1840;48.892;15.312;2023-06-14T00:05:00;12.40;91.10
3648;DHT22;1840;48.892;15.312;2023-06-14T00:07:36;12.40;91.10
3648;DHT22;1840;48.892;15.312;2023-06-14T00:10:06;12.40;91.10
3648;DHT22;1840;48.892;15.312;2023-06-14T00:12:34;12.40;91.20
3648;DHT22;1840;48.892;15.312;2023-06-14T00:15:03;12.40;91.20
3648;DHT22;1840;48.892;15.312;2023-06-14T00:17:32;12.30;91.30
3648;DHT22;1840;48.892;15.312;2023-06-14T00:20:03;12.30;91.30
3648;DHT22;1840;48.892;15.312;2023-06-14T00:22:34;12.30;91.40
3648;DHT22;1840;48.892;15.312;2023-06-14T00:25:04;12.20;91.40
3648;DHT22;1840;48.892;15.312;2023-06-14T00:27:50;12.20;91.40
3648;DHT22;1840;48.892;15.312;2023-06-14T00:30:18;12.20;91.50
3648;DHT22;1840;48.892;15.312;2023-06-14T00:32:47;12.20;91.70
3648;DHT22;1840;48.892;15.312;2023-06-14T00:35:17;12.10;91.80
3648;DHT22;1840;48.892;15.312;2023-06-14T00:37:45;12.10;91.60
3648;DHT22;1840;48.892;15.312;2023-06-14T00:40:13;12.10;91.50
3648;DHT22;1840;48.892;15.312;2023-06-14T00:42:41;12.10;91.40
3648;DHT22;1840;48.892;15.312;2023-06-14T00:45:10;12.10;91.30
3648;DHT22;1840;48.892;15.312;2023-06-14T00:47:38;12.10;91.50
3648;DHT22;1840;48.892;15.312;2023-06-14T00:50:09;12.10;91.50
3648;DHT22;1840;48.892;15.312;2023-06-14T00:52:39;12.10;91.50
3648;DHT22;1840;48.892;15.312;2023-06-14T00:55:08;12.00;91.50
3648;DHT22;1840;48.892;15.312;2023-06-14T00:57:36;12.00;91.50
3648;DHT22;1840;48.892;15.312;2023-06-14T01:00:07;12.00;91.60
3648;DHT22;1840;48.892;15.312;2023-06-14T01:02:37;12.00;91.60
3648;DHT22;1840;48.892;15.312;2023-06-14T01:05:06;12.00;91.70
3648;DHT22;1840;48.892;15.312;2023-06-14T01:07:51;12.00;91.30
3648;DHT22;1840;48.892;15.312;2023-06-14T01:10:31;12.00;91.10
3648;DHT22;1840;48.892;15.312;2023-06-14T01:13:07;12.00;91.00
3648;DHT22;1840;48.892;15.312;2023-06-14T01:15:36;12.10;90.90
3648;DHT22;1840;48.892;15.312;2023-06-14T01:18:05;12.20;90.60
3648;DHT22;1840;48.892;15.312;2023-06-14T01:20:33;12.10;90.70
3648;DHT22;1840;48.892;15.312;2023-06-14T01:23:06;12.20;90.50
3648;DHT22;1840;48.892;15.312;2023-06-14T01:25:34;12.20;90.30
3648;DHT22;1840;48.892;15.312;2023-06-14T01:28:05;12.20;90.20
3648;DHT22;1840;48.892;15.312;2023-06-14T01:30:37;12.30;90.30
3648;DHT22;1840;48.892;15.312;2023-06-14T01:33:05;12.20;90.30
3648;DHT22;1840;48.892;15.312;2023-06-14T01:35:34;12.30;90.20
3648;DHT22;1840;48.892;15.312;2023-06-14T01:38:03;12.30;90.10
3648;DHT22;1840;48.892;15.312;2023-06-14T01:40:33;12.40;90.00
3648;DHT22;1840;48.892;15.312;2023-06-14T01:43:03;12.40;90.00
3648;DHT22;1840;48.892;15.312;2023-06-14T01:45:32;12.40;89.70
3648;DHT22;1840;48.892;15.312;2023-06-14T01:48:01;12.40;90.00
3648;DHT22;1840;48.892;15.312;2023-06-14T01:50:30;12.40;90.00
3648;DHT22;1840;48.892;15.312;2023-06-14T01:52:58;12.50;89.80
3648;DHT22;1840;48.892;15.312;2023-06-14T01:55:27;12.40;90.00
3648;DHT22;1840;48.892;15.312;2023-06-14T01:57:56;12.50;90.00
3648;DHT22;1840;48.892;15.312;2023-06-14T02:00:25;12.50;89.70
3648;DHT22;1840;48.892;15.312;2023-06-14T02:02:53;12.50;90.00
3648;DHT22;1840;48.892;15.312;2023-06-14T02:05:22;12.40;90.00
3648;DHT22;1840;48.892;15.312;2023-06-14T02:07:50;12.40;90.00
3648;DHT22;1840;48.892;15.312;2023-06-14T02:10:20;12.40;90.10
3648;DHT22;1840;48.892;15.312;2023-06-14T02:12:48;12.40;90.10
3648;DHT22;1840;48.892;15.312;2023-06-14T02:15:18;12.40;90.10
3648;DHT22;1840;48.892;15.312;2023-06-14T02:17:46;12.40;90.20
3648;DHT22;1840;48.892;15.312;2023-06-14T02:20:16;12.30;90.20
3648;DHT22;1840;48.892;15.312;2023-06-14T02:22:45;12.40;90.30
3648;DHT22;1840;48.892;15.312;2023-06-14T02:25:13;12.40;90.20
3648;DHT22;1840;48.892;15.312;2023-06-14T02:27:42;12.40;90.20
3648;DHT22;1840;48.892;15.312;2023-06-14T02:30:11;12.30;90.40
3648;DHT22;1840;48.892;15.312;2023-06-14T02:32:41;12.30;90.30
3648;DHT22;1840;48.892;15.312;2023-06-14T02:35:09;12.30;90.30
3648;DHT22;1840;48.892;15.312;2023-06-14T02:37:38;12.30;90.20
3648;DHT22;1840;48.892;15.312;2023-06-14T02:40:07;12.20;90.10
3648;DHT22;1840;48.892;15.312;2023-06-14T02:42:35;12.20;90.20
3648;DHT22;1840;48.892;15.312;2023-06-14T02:45:04;12.20;90.10
3648;DHT22;1840;48.892;15.312;2023-06-14T02:47:32;12.10;90.10
3648;DHT22;1840;48.892;15.312;2023-06-14T02:50:02;12.00;90.20
3648;DHT22;1840;48.892;15.312;2023-06-14T02:52:31;12.10;90.10
3648;DHT22;1840;48.892;15.312;2023-06-14T02:55:00;12.20;90.10
3648;DHT22;1840;48.892;15.312;2023-06-14T02:57:28;12.10;90.10
3648;DHT22;1840;48.892;15.312;2023-06-14T02:59:56;12.10;90.10
3648;DHT22;1840;48.892;15.312;2023-06-14T03:02:24;12.20;90.10
3648;DHT22;1840;48.892;15.312;2023-06-14T03:04:52;12.10;90.10
3648;DHT22;1840;48.892;15.312;2023-06-14T03:07:22;12.10;90.20
3648;DHT22;1840;48.892;15.312;2023-06-14T03:09:53;12.10;90.20
3648;DHT22;1840;48.892;15.312;2023-06-14T03:12:21;12.00;90.20
3648;DHT22;1840;48.892;15.312;2023-06-14T03:14:50;12.00;90.20
3648;DHT22;1840;48.892;15.312;2023-06-14T03:17:18;12.10;90.20
3648;DHT22;1840;48.892;15.312;2023-06-14T03:19:47;12.10;90.20
3648;DHT22;1840;48.892;15.312;2023-06-14T03:22:15;12.10;90.20
3648;DHT22;1840;48.892;15.312;2023-06-14T03:24:44;12.10;90.20
3648;DHT22;1840;48.892;15.312;2023-06-14T03:27:12;12.00;90.30
3648;DHT22;1840;48.892;15.312;2023-06-14T03:29:41;12.10;90.20
3648;DHT22;1840;48.892;15.312;2023-06-14T03:32:09;12.00;90.20
3648;DHT22;1840;48.892;15.312;2023-06-14T03:34:37;11.90;90.30
3648;DHT22;1840;48.892;15.312;2023-06-14T03:37:06;12.00;90.40
3648;DHT22;1840;48.892;15.312;2023-06-14T03:39:34;12.00;90.20
3648;DHT22;1840;48.892;15.312;2023-06-14T03:42:04;12.00;90.20
3648;DHT22;1840;48.892;15.312;2023-06-14T03:44:33;11.90;90.20
3648;DHT22;1840;48.892;15.312;2023-06-14T03:47:02;12.00;90.20
3648;DHT22;1840;48.892;15.312;2023-06-14T03:49:30;12.00;90.40
3648;DHT22;1840;48.892;15.312;2023-06-14T03:51:58;11.90;90.80
3648;DHT22;1840;48.892;15.312;2023-06-14T03:54:26;11.90;90.70
3648;DHT22;1840;48.892;15.312;2023-06-14T03:57:16;11.90;90.70
3648;DHT22;1840;48.892;15.312;2023-06-14T03:59:44;11.90;91.10
3648;DHT22;1840;48.892;15.312;2023-06-14T04:02:13;11.90;91.20
3648;DHT22;1840;48.892;15.312;2023-06-14T04:04:42;11.90;91.30
3648;DHT22;1840;48.892;15.312;2023-06-14T04:07:12;11.80;91.30
3648;DHT22;1840;48.892;15.312;2023-06-14T04:09:40;11.80;91.50
3648;DHT22;1840;48.892;15.312;2023-06-14T04:12:09;11.80;91.60
3648;DHT22;1840;48.892;15.312;2023-06-14T04:14:39;11.80;91.80
3648;DHT22;1840;48.892;15.312;2023-06-14T04:17:08;11.80;91.90
3648;DHT22;1840;48.892;15.312;2023-06-14T04:19:36;11.80;92.00
3648;DHT22;1840;48.892;15.312;2023-06-14T04:22:05;11.80;92.20
3648;DHT22;1840;48.892;15.312;2023-06-14T04:24:33;11.80;92.20
3648;DHT22;1840;48.892;15.312;2023-06-14T04:27:01;11.80;92.20
3648;DHT22;1840;48.892;15.312;2023-06-14T04:29:29;11.80;92.30
3648;DHT22;1840;48.892;15.312;2023-06-14T04:31:59;11.70;92.40
3648;DHT22;1840;48.892;15.312;2023-06-14T04:34:28;11.70;92.40
3648;DHT22;1840;48.892;15.312;2023-06-14T04:36:58;11.70;92.40
3648;DHT22;1840;48.892;15.312;2023-06-14T04:39:27;11.80;92.50
3648;DHT22;1840;48.892;15.312;2023-06-14T04:41:56;11.90;92.30
3648;DHT22;1840;48.892;15.312;2023-06-14T04:44:27;11.90;92.40
3648;DHT22;1840;48.892;15.312;2023-06-14T04:47:00;11.90;92.50
3648;DHT22;1840;48.892;15.312;2023-06-14T04:49:28;11.80;92.70
3648;DHT22;1840;48.892;15.312;2023-06-14T04:51:57;11.90;92.80
3648;DHT22;1840;48.892;15.312;2023-06-14T04:54:26;11.90;92.80
3648;DHT22;1840;48.892;15.312;2023-06-14T04:56:54;12.00;92.90
3648;DHT22;1840;48.892;15.312;2023-06-14T04:59:23;11.90;93.10
3648;DHT22;1840;48.892;15.312;2023-06-14T05:01:51;11.90;93.10
3648;DHT22;1840;48.892;15.312;2023-06-14T05:04:21;12.00;93.10
3648;DHT22;1840;48.892;15.312;2023-06-14T05:06:49;12.00;93.20
3648;DHT22;1840;48.892;15.312;2023-06-14T05:09:18;11.90;93.60
3648;DHT22;1840;48.892;15.312;2023-06-14T05:11:46;11.90;93.60
3648;DHT22;1840;48.892;15.312;2023-06-14T05:14:14;11.90;93.90
3648;DHT22;1840;48.892;15.312;2023-06-14T05:16:42;11.90;93.80
3648;DHT22;1840;48.892;15.312;2023-06-14T05:19:10;12.10;93.80
3648;DHT22;1840;48.892;15.312;2023-06-14T05:21:40;12.20;93.90
3648;DHT22;1840;48.892;15.312;2023-06-14T05:24:10;12.20;94.00
3648;DHT22;1840;48.892;15.312;2023-06-14T05:26:38;12.20;94.10
3648;DHT22;1840;48.892;15.312;2023-06-14T05:29:06;12.20;94.20
3648;DHT22;1840;48.892;15.312;2023-06-14T05:31:34;12.40;94.20
3648;DHT22;1840;48.892;15.312;2023-06-14T05:34:02;12.50;93.90
3648;DHT22;1840;48.892;15.312;2023-06-14T05:36:31;12.50;94.00
3648;DHT22;1840;48.892;15.312;2023-06-14T05:39:00;12.60;93.80
3648;DHT22;1840;48.892;15.312;2023-06-14T05:41:29;12.70;93.80
3648;DHT22;1840;48.892;15.312;2023-06-14T05:43:58;12.70;93.60
3648;DHT22;1840;48.892;15.312;2023-06-14T05:46:26;12.80;93.70
3648;DHT22;1840;48.892;15.312;2023-06-14T05:48:55;12.90;93.50
3648;DHT22;1840;48.892;15.312;2023-06-14T05:51:24;13.00;93.40
3648;DHT22;1840;48.892;15.312;2023-06-14T05:53:53;12.90;93.20
3648;DHT22;1840;48.892;15.312;2023-06-14T05:56:22;13.00;93.50
3648;DHT22;1840;48.892;15.312;2023-06-14T05:58:50;12.90;93.70
3648;DHT22;1840;48.892;15.312;2023-06-14T06:01:19;12.90;93.70
3648;DHT22;1840;48.892;15.312;2023-06-14T06:03:47;12.90;93.60
3648;DHT22;1840;48.892;15.312;2023-06-14T06:06:15;13.00;93.60
3648;DHT22;1840;48.892;15.312;2023-06-14T06:08:43;13.10;93.60
3648;DHT22;1840;48.892;15.312;2023-06-14T06:11:12;13.00;93.50
3648;DHT22;1840;48.892;15.312;2023-06-14T06:13:41;13.10;93.70
3648;DHT22;1840;48.892;15.312;2023-06-14T06:16:09;13.10;93.60
3648;DHT22;1840;48.892;15.312;2023-06-14T06:18:37;13.20;93.90
3648;DHT22;1840;48.892;15.312;2023-06-14T06:21:06;13.30;94.10
3648;DHT22;1840;48.892;15.312;2023-06-14T06:23:34;13.30;93.80
3648;DHT22;1840;48.892;15.312;2023-06-14T06:26:02;13.30;94.00
3648;DHT22;1840;48.892;15.312;2023-06-14T06:28:31;13.30;93.60
3648;DHT22;1840;48.892;15.312;2023-06-14T06:31:00;13.50;93.60
3648;DHT22;1840;48.892;15.312;2023-06-14T06:33:31;13.70;93.90
3648;DHT22;1840;48.892;15.312;2023-06-14T06:35:59;14.10;93.30
3648;DHT22;1840;48.892;15.312;2023-06-14T06:38:27;14.50;92.80
3648;DHT22;1840;48.892;15.312;2023-06-14T06:40:55;15.10;92.10
3648;DHT22;1840;48.892;15.312;2023-06-14T06:43:23;15.30;89.50
3648;DHT22;1840;48.892;15.312;2023-06-14T06:45:51;15.80;90.70
3648;DHT22;1840;48.892;15.312;2023-06-14T06:48:21;16.10;87.80
3648;DHT22;1840;48.892;15.312;2023-06-14T06:50:49;16.50;86.40
3648;DHT22;1840;48.892;15.312;2023-06-14T06:53:18;16.90;84.00
3648;DHT22;1840;48.892;15.312;2023-06-14T06:55:56;17.20;85.30
3648;DHT22;1840;48.892;15.312;2023-06-14T06:58:24;17.50;82.30
3648;DHT22;1840;48.892;15.312;2023-06-14T07:00:53;17.40;78.90
3648;DHT22;1840;48.892;15.312;2023-06-14T07:03:23;17.10;81.60
3648;DHT22;1840;48.892;15.312;2023-06-14T07:05:51;17.30;80.50
3648;DHT22;1840;48.892;15.312;2023-06-14T07:08:19;17.30;81.60
3648;DHT22;1840;48.892;15.312;2023-06-14T07:10:47;17.30;77.90
3648;DHT22;1840;48.892;15.312;2023-06-14T07:13:15;17.20;80.90
3648;DHT22;1840;48.892;15.312;2023-06-14T07:15:44;17.50;78.60
3648;DHT22;1840;48.892;15.312;2023-06-14T07:18:12;17.00;78.40
3648;DHT22;1840;48.892;15.312;2023-06-14T07:20:44;16.70;78.30
3648;DHT22;1840;48.892;15.312;2023-06-14T07:23:12;15.90;79.10
3648;DHT22;1840;48.892;15.312;2023-06-14T07:25:40;15.00;80.70
3648;DHT22;1840;48.892;15.312;2023-06-14T07:28:08;14.80;82.50
3648;DHT22;1840;48.892;15.312;2023-06-14T07:30:36;14.80;83.50
3648;DHT22;1840;48.892;15.312;2023-06-14T07:33:04;15.20;84.30
3648;DHT22;1840;48.892;15.312;2023-06-14T07:35:32;15.40;83.00
3648;DHT22;1840;48.892;15.312;2023-06-14T07:38:02;15.60;84.90
3648;DHT22;1840;48.892;15.312;2023-06-14T07:40:30;15.90;83.20
3648;DHT22;1840;48.892;15.312;2023-06-14T07:42:58;16.10;83.20
3648;DHT22;1840;48.892;15.312;2023-06-14T07:45:26;16.10;83.90
3648;DHT22;1840;48.892;15.312;2023-06-14T07:47:54;16.00;83.60
3648;DHT22;1840;48.892;15.312;2023-06-14T07:50:23;15.80;84.40
3648;DHT22;1840;48.892;15.312;2023-06-14T07:52:51;15.70;83.10
3648;DHT22;1840;48.892;15.312;2023-06-14T07:55:21;15.90;84.60
3648;DHT22;1840;48.892;15.312;2023-06-14T07:57:49;16.00;86.30
3648;DHT22;1840;48.892;15.312;2023-06-14T08:00:18;16.00;85.20
3648;DHT22;1840;48.892;15.312;2023-06-14T08:02:47;16.10;85.20
3648;DHT22;1840;48.892;15.312;2023-06-14T08:05:15;16.20;86.10
3648;DHT22;1840;48.892;15.312;2023-06-14T08:07:44;16.20;86.40
3648;DHT22;1840;48.892;15.312;2023-06-14T08:10:12;16.00;82.70
3648;DHT22;1840;48.892;15.312;2023-06-14T08:12:41;16.20;82.70
3648;DHT22;1840;48.892;15.312;2023-06-14T08:15:10;16.30;80.60
3648;DHT22;1840;48.892;15.312;2023-06-14T08:17:42;16.30;80.90
3648;DHT22;1840;48.892;15.312;2023-06-14T08:20:12;16.40;81.70
3648;DHT22;1840;48.892;15.312;2023-06-14T08:22:41;16.10;80.60
3648;DHT22;1840;48.892;15.312;2023-06-14T08:25:09;16.30;79.80
3648;DHT22;1840;48.892;15.312;2023-06-14T08:27:37;16.20;80.20
3648;DHT22;1840;48.892;15.312;2023-06-14T08:30:08;16.20;80.50
3648;DHT22;1840;48.892;15.312;2023-06-14T08:32:37;16.50;80.50
3648;DHT22;1840;48.892;15.312;2023-06-14T08:35:05;16.70;81.00
3648;DHT22;1840;48.892;15.312;2023-06-14T08:37:38;16.60;79.40
3648;DHT22;1840;48.892;15.312;2023-06-14T08:40:17;16.70;77.50
3648;DHT22;1840;48.892;15.312;2023-06-14T08:42:50;16.40;76.80
3648;DHT22;1840;48.892;15.312;2023-06-14T08:45:20;16.10;78.70
3648;DHT22;1840;48.892;15.312;2023-06-14T08:47:53;16.20;79.70
3648;DHT22;1840;48.892;15.312;2023-06-14T08:50:25;16.40;79.50
3648;DHT22;1840;48.892;15.312;2023-06-14T08:52:59;16.60;80.00
3648;DHT22;1840;48.892;15.312;2023-06-14T08:55:29;16.90;80.20
3648;DHT22;1840;48.892;15.312;2023-06-14T08:58:02;16.90;79.00
3648;DHT22;1840;48.892;15.312;2023-06-14T09:00:33;16.90;78.10
3648;DHT22;1840;48.892;15.312;2023-06-14T09:03:01;16.70;80.00
3648;DHT22;1840;48.892;15.312;2023-06-14T09:05:30;16.80;81.50
3648;DHT22;1840;48.892;15.312;2023-06-14T09:07:58;17.20;81.10
3648;DHT22;1840;48.892;15.312;2023-06-14T09:10:31;17.40;79.90
3648;DHT22;1840;48.892;15.312;2023-06-14T09:13:01;17.50;79.70
3648;DHT22;1840;48.892;15.312;2023-06-14T09:15:30;17.50;80.10
3648;DHT22;1840;48.892;15.312;2023-06-14T09:18:01;17.70;81.00
3648;DHT22;1840;48.892;15.312;2023-06-14T09:20:30;17.70;79.50
3648;DHT22;1840;48.892;15.312;2023-06-14T09:22:58;17.60;79.30
3648;DHT22;1840;48.892;15.312;2023-06-14T09:25:27;17.50;78.70
3648;DHT22;1840;48.892;15.312;2023-06-14T09:28:07;17.60;80.80
3648;DHT22;1840;48.892;15.312;2023-06-14T09:30:36;17.80;78.60
3648;DHT22;1840;48.892;15.312;2023-06-14T09:33:06;17.80;78.90
3648;DHT22;1840;48.892;15.312;2023-06-14T09:35:35;17.60;78.60
3648;DHT22;1840;48.892;15.312;2023-06-14T09:38:04;17.80;79.80
3648;DHT22;1840;48.892;15.312;2023-06-14T09:40:34;17.90;79.10
3648;DHT22;1840;48.892;15.312;2023-06-14T09:43:06;17.80;78.40
3648;DHT22;1840;48.892;15.312;2023-06-14T09:45:35;17.90;80.40
3648;DHT22;1840;48.892;15.312;2023-06-14T09:48:04;18.30;78.70
3648;DHT22;1840;48.892;15.312;2023-06-14T09:50:35;18.40;77.10
3648;DHT22;1840;48.892;15.312;2023-06-14T09:53:06;18.50;78.90
3648;DHT22;1840;48.892;15.312;2023-06-14T09:55:36;18.50;79.10
3648;DHT22;1840;48.892;15.312;2023-06-14T09:58:07;18.30;78.90
3648;DHT22;1840;48.892;15.312;2023-06-14T10:00:36;18.30;78.00
3648;DHT22;1840;48.892;15.312;2023-06-14T10:03:12;18.30;78.70
3648;DHT22;1840;48.892;15.312;2023-06-14T10:05:45;18.40;78.60
3648;DHT22;1840;48.892;15.312;2023-06-14T10:08:16;18.20;77.60
3648;DHT22;1840;48.892;15.312;2023-06-14T10:10:45;18.10;77.50
3648;DHT22;1840;48.892;15.312;2023-06-14T10:13:14;18.30;76.90
3648;DHT22;1840;48.892;15.312;2023-06-14T10:15:51;18.30;76.20
3648;DHT22;1840;48.892;15.312;2023-06-14T10:18:27;18.30;79.00
3648;DHT22;1840;48.892;15.312;2023-06-14T10:21:05;18.30;77.20
3648;DHT22;1840;48.892;15.312;2023-06-14T10:23:38;18.70;76.10
3648;DHT22;1840;48.892;15.312;2023-06-14T10:26:07;18.70;75.00
3648;DHT22;1840;48.892;15.312;2023-06-14T10:28:37;18.60;74.50
3648;DHT22;1840;48.892;15.312;2023-06-14T10:31:07;18.70;75.90
3648;DHT22;1840;48.892;15.312;2023-06-14T10:33:36;18.50;76.10
3648;DHT22;1840;48.892;15.312;2023-06-14T10:36:10;18.70;75.50
3648;DHT22;1840;48.892;15.312;2023-06-14T10:38:38;18.70;75.10
3648;DHT22;1840;48.892;15.312;2023-06-14T10:41:06;18.70;75.50
3648;DHT22;1840;48.892;15.312;2023-06-14T10:43:34;18.70;74.40
3648;DHT22;1840;48.892;15.312;2023-06-14T10:46:20;18.70;74.60
3648;DHT22;1840;48.892;15.312;2023-06-14T10:48:57;18.70;74.60
3648;DHT22;1840;48.892;15.312;2023-06-14T10:51:29;18.60;77.40
3648;DHT22;1840;48.892;15.312;2023-06-14T10:54:00;18.50;76.40
3648;DHT22;1840;48.892;15.312;2023-06-14T10:56:29;18.40;77.20
3648;DHT22;1840;48.892;15.312;2023-06-14T10:58:58;18.60;77.40
3648;DHT22;1840;48.892;15.312;2023-06-14T11:01:35;18.80;74.70
3648;DHT22;1840;48.892;15.312;2023-06-14T11:04:08;18.90;74.90
3648;DHT22;1840;48.892;15.312;2023-06-14T11:06:47;18.80;74.10
3648;DHT22;1840;48.892;15.312;2023-06-14T11:09:29;19.00;75.00
3648;DHT22;1840;48.892;15.312;2023-06-14T11:12:03;19.10;72.50
3648;DHT22;1840;48.892;15.312;2023-06-14T11:14:32;19.10;72.60
3648;DHT22;1840;48.892;15.312;2023-06-14T11:17:00;19.00;75.80
3648;DHT22;1840;48.892;15.312;2023-06-14T11:19:28;19.10;73.60
3648;DHT22;1840;48.892;15.312;2023-06-14T11:21:59;19.30;73.80
3648;DHT22;1840;48.892;15.312;2023-06-14T11:24:27;19.50;72.70
3648;DHT22;1840;48.892;15.312;2023-06-14T11:26:55;19.70;72.70
3648;DHT22;1840;48.892;15.312;2023-06-14T11:29:24;19.40;72.40
3648;DHT22;1840;48.892;15.312;2023-06-14T11:31:53;19.40;72.60
3648;DHT22;1840;48.892;15.312;2023-06-14T11:34:21;19.40;71.30
3648;DHT22;1840;48.892;15.312;2023-06-14T11:36:49;19.30;73.30
3648;DHT22;1840;48.892;15.312;2023-06-14T11:39:24;19.00;75.40
3648;DHT22;1840;48.892;15.312;2023-06-14T11:41:53;19.10;73.90
3648;DHT22;1840;48.892;15.312;2023-06-14T11:44:22;19.10;72.40
3648;DHT22;1840;48.892;15.312;2023-06-14T11:46:50;19.20;70.50
3648;DHT22;1840;48.892;15.312;2023-06-14T11:49:18;19.10;69.30
3648;DHT22;1840;48.892;15.312;2023-06-14T11:51:47;19.20;70.50
3648;DHT22;1840;48.892;15.312;2023-06-14T11:54:15;19.20;70.50
3648;DHT22;1840;48.892;15.312;2023-06-14T11:56:44;19.30;72.60
3648;DHT22;1840;48.892;15.312;2023-06-14T11:59:13;19.50;70.50
3648;DHT22;1840;48.892;15.312;2023-06-14T12:01:43;19.70;72.20
3648;DHT22;1840;48.892;15.312;2023-06-14T12:04:12;19.80;74.70
3648;DHT22;1840;48.892;15.312;2023-06-14T12:06:40;19.90;71.50
3648;DHT22;1840;48.892;15.312;2023-06-14T12:09:08;19.80;73.80
3648;DHT22;1840;48.892;15.312;2023-06-14T12:11:40;19.80;72.40
3648;DHT22;1840;48.892;15.312;2023-06-14T12:14:10;19.60;71.60
3648;DHT22;1840;48.892;15.312;2023-06-14T12:16:39;19.40;72.40
3648;DHT22;1840;48.892;15.312;2023-06-14T12:19:11;19.00;72.20
3648;DHT22;1840;48.892;15.312;2023-06-14T12:21:40;18.90;76.90
3648;DHT22;1840;48.892;15.312;2023-06-14T12:24:09;19.00;74.90
3648;DHT22;1840;48.892;15.312;2023-06-14T12:26:40;18.80;75.20
3648;DHT22;1840;48.892;15.312;2023-06-14T12:29:10;18.60;79.00
3648;DHT22;1840;48.892;15.312;2023-06-14T12:31:39;17.70;80.30
3648;DHT22;1840;48.892;15.312;2023-06-14T12:34:07;17.00;82.00
3648;DHT22;1840;48.892;15.312;2023-06-14T12:36:35;16.50;83.10
3648;DHT22;1840;48.892;15.312;2023-06-14T12:39:08;16.40;82.70
3648;DHT22;1840;48.892;15.312;2023-06-14T12:41:36;16.20;83.30
3648;DHT22;1840;48.892;15.312;2023-06-14T12:44:04;16.00;83.40
3648;DHT22;1840;48.892;15.312;2023-06-14T12:46:34;15.80;84.60
3648;DHT22;1840;48.892;15.312;2023-06-14T12:49:03;15.80;83.50
3648;DHT22;1840;48.892;15.312;2023-06-14T12:51:32;16.00;81.90
3648;DHT22;1840;48.892;15.312;2023-06-14T12:54:00;16.10;82.70
3648;DHT22;1840;48.892;15.312;2023-06-14T12:56:28;16.40;83.00
3648;DHT22;1840;48.892;15.312;2023-06-14T12:58:58;16.50;81.90
3648;DHT22;1840;48.892;15.312;2023-06-14T13:01:26;16.60;82.50
3648;DHT22;1840;48.892;15.312;2023-06-14T13:03:56;16.70;83.90
3648;DHT22;1840;48.892;15.312;2023-06-14T13:06:24;16.90;83.40
3648;DHT22;1840;48.892;15.312;2023-06-14T13:08:52;16.90;82.70
3648;DHT22;1840;48.892;15.312;2023-06-14T13:11:21;17.00;82.70
3648;DHT22;1840;48.892;15.312;2023-06-14T13:13:49;17.10;80.00
3648;DHT22;1840;48.892;15.312;2023-06-14T13:16:17;17.20;81.20
3648;DHT22;1840;48.892;15.312;2023-06-14T13:18:46;17.20;80.50
3648;DHT22;1840;48.892;15.312;2023-06-14T13:21:15;17.40;80.60
3648;DHT22;1840;48.892;15.312;2023-06-14T13:23:43;17.60;79.60
3648;DHT22;1840;48.892;15.312;2023-06-14T13:26:11;17.80;80.50
3648;DHT22;1840;48.892;15.312;2023-06-14T13:28:39;18.00;79.20
3648;DHT22;1840;48.892;15.312;2023-06-14T13:31:08;18.10;79.50
3648;DHT22;1840;48.892;15.312;2023-06-14T13:33:36;18.20;80.60
3648;DHT22;1840;48.892;15.312;2023-06-14T13:36:04;18.40;79.90
3648;DHT22;1840;48.892;15.312;2023-06-14T13:38:33;18.50;79.10
3648;DHT22;1840;48.892;15.312;2023-06-14T13:41:01;18.70;80.60
3648;DHT22;1840;48.892;15.312;2023-06-14T13:43:29;18.70;80.40
3648;DHT22;1840;48.892;15.312;2023-06-14T13:45:57;18.80;79.60
3648;DHT22;1840;48.892;15.312;2023-06-14T13:48:26;19.00;78.40
3648;DHT22;1840;48.892;15.312;2023-06-14T13:50:54;19.00;75.80
3648;DHT22;1840;48.892;15.312;2023-06-14T13:53:22;19.10;78.10
3648;DHT22;1840;48.892;15.312;2023-06-14T13:55:52;19.10;75.60
3648;DHT22;1840;48.892;15.312;2023-06-14T13:58:20;19.10;74.60
3648;DHT22;1840;48.892;15.312;2023-06-14T14:00:50;19.10;75.20
3648;DHT22;1840;48.892;15.312;2023-06-14T14:03:19;19.10;73.20
3648;DHT22;1840;48.892;15.312;2023-06-14T14:05:47;19.00;74.80
3648;DHT22;1840;48.892;15.312;2023-06-14T14:08:15;19.20;74.60
3648;DHT22;1840;48.892;15.312;2023-06-14T14:10:43;19.20;74.10
3648;DHT22;1840;48.892;15.312;2023-06-14T14:13:13;19.20;74.50
3648;DHT22;1840;48.892;15.312;2023-06-14T14:15:43;19.30;73.60
3648;DHT22;1840;48.892;15.312;2023-06-14T14:18:11;19.20;72.70
3648;DHT22;1840;48.892;15.312;2023-06-14T14:20:39;19.40;73.80
3648;DHT22;1840;48.892;15.312;2023-06-14T14:23:07;19.40;74.40
3648;DHT22;1840;48.892;15.312;2023-06-14T14:25:35;19.40;73.20
3648;DHT22;1840;48.892;15.312;2023-06-14T14:28:04;19.50;71.60
3648;DHT22;1840;48.892;15.312;2023-06-14T14:30:33;19.50;74.70
3648;DHT22;1840;48.892;15.312;2023-06-14T14:33:01;19.60;74.60
3648;DHT22;1840;48.892;15.312;2023-06-14T14:35:29;19.70;76.90
3648;DHT22;1840;48.892;15.312;2023-06-14T14:37:57;19.80;75.30
3648;DHT22;1840;48.892;15.312;2023-06-14T14:40:25;19.90;77.70
3648;DHT22;1840;48.892;15.312;2023-06-14T14:42:54;19.90;75.40
3648;DHT22;1840;48.892;15.312;2023-06-14T14:45:23;20.00;74.00
3648;DHT22;1840;48.892;15.312;2023-06-14T14:47:52;19.90;74.90
3648;DHT22;1840;48.892;15.312;2023-06-14T14:50:22;19.60;72.40
3648;DHT22;1840;48.892;15.312;2023-06-14T14:52:50;19.70;74.30
3648;DHT22;1840;48.892;15.312;2023-06-14T14:55:18;19.80;74.50
3648;DHT22;1840;48.892;15.312;2023-06-14T14:57:46;19.90;73.10
3648;DHT22;1840;48.892;15.312;2023-06-14T15:00:16;19.80;74.00
3648;DHT22;1840;48.892;15.312;2023-06-14T15:02:45;19.80;76.20
3648;DHT22;1840;48.892;15.312;2023-06-14T15:05:14;19.80;75.00
3648;DHT22;1840;48.892;15.312;2023-06-14T15:07:42;19.80;73.60
3648;DHT22;1840;48.892;15.312;2023-06-14T15:10:11;19.80;74.10
3648;DHT22;1840;48.892;15.312;2023-06-14T15:12:40;19.80;72.40
3648;DHT22;1840;48.892;15.312;2023-06-14T15:15:09;19.70;73.10
3648;DHT22;1840;48.892;15.312;2023-06-14T15:17:40;19.80;73.60
3648;DHT22;1840;48.892;15.312;2023-06-14T15:20:09;19.80;71.70
3648;DHT22;1840;48.892;15.312;2023-06-14T15:22:41;19.70;71.20
3648;DHT22;1840;48.892;15.312;2023-06-14T15:25:09;19.50;73.70
3648;DHT22;1840;48.892;15.312;2023-06-14T15:28:01;19.40;73.50
3648;DHT22;1840;48.892;15.312;2023-06-14T15:30:33;19.70;70.30
3648;DHT22;1840;48.892;15.312;2023-06-14T15:33:01;19.80;70.90
3648;DHT22;1840;48.892;15.312;2023-06-14T15:35:29;19.80;70.50
3648;DHT22;1840;48.892;15.312;2023-06-14T15:37:59;19.80;71.00
3648;DHT22;1840;48.892;15.312;2023-06-14T15:40:27;19.70;68.20
3648;DHT22;1840;48.892;15.312;2023-06-14T15:42:55;19.40;68.00
3648;DHT22;1840;48.892;15.312;2023-06-14T15:45:24;19.20;69.30
3648;DHT22;1840;48.892;15.312;2023-06-14T15:47:52;19.20;73.00
3648;DHT22;1840;48.892;15.312;2023-06-14T15:50:20;19.50;73.30
3648;DHT22;1840;48.892;15.312;2023-06-14T15:52:48;19.70;70.20
3648;DHT22;1840;48.892;15.312;2023-06-14T15:55:19;19.80;70.40
3648;DHT22;1840;48.892;15.312;2023-06-14T15:57:48;20.30;72.30